<?xml version="1.0" encoding="UTF-8" standalone="no" ?>
<gpx xmlns="http://www.topografix.com/GPX/1/1" xmlns:xsi="http://www.w3.org/2001/XMLSchema-instance" xsi:schemaLocation="http://www.topografix.com/GPX/1/1 http://www.topografix.com/GPX/1/1/gpx.xsd" version="1.1" creator="VisuGPX - https://www.visugpx.com">
  <metadata>
    <name>11949453-nasbinals aubrac 1</name>
    <desc><![CDATA[Aubrac]]></desc>
  </metadata>
  <trk>
    <name><![CDATA[11949453-nasbinals aubrac 1]]></name>
    <trkseg>
      <trkpt lat="44.6622" lon="3.04655">
        <ele>1178</ele>
        <time>2020-10-20T13:02:06Z</time>
      </trkpt>
      <trkpt lat="44.66189" lon="3.04736">
        <ele>1175</ele>
        <time>2020-10-20T13:03:33Z</time>
      </trkpt>
      <trkpt lat="44.66171" lon="3.04851">
        <ele>1177</ele>
        <time>2020-10-20T13:05:25Z</time>
      </trkpt>
      <trkpt lat="44.66133" lon="3.04939">
        <ele>1182</ele>
        <time>2020-10-20T13:07:03Z</time>
      </trkpt>
      <trkpt lat="44.66038" lon="3.0503">
        <ele>1187</ele>
        <time>2020-10-20T13:09:36Z</time>
      </trkpt>
      <trkpt lat="44.66044" lon="3.05076">
        <ele>1183</ele>
        <time>2020-10-20T13:10:21Z</time>
      </trkpt>
      <trkpt lat="44.66003" lon="3.05118">
        <ele>1186</ele>
        <time>2020-10-20T13:11:28Z</time>
      </trkpt>
      <trkpt lat="44.65925" lon="3.05143">
        <ele>1188</ele>
        <time>2020-10-20T13:13:15Z</time>
      </trkpt>
      <trkpt lat="44.65897" lon="3.05134">
        <ele>1190</ele>
        <time>2020-10-20T13:13:53Z</time>
      </trkpt>
      <trkpt lat="44.65699" lon="3.052">
        <ele>1195</ele>
        <time>2020-10-20T13:18:25Z</time>
      </trkpt>
      <trkpt lat="44.65545" lon="3.0517">
        <ele>1198</ele>
        <time>2020-10-20T13:21:52Z</time>
      </trkpt>
      <trkpt lat="44.65485" lon="3.05146">
        <ele>1203</ele>
        <time>2020-10-20T13:23:16Z</time>
      </trkpt>
      <trkpt lat="44.65347" lon="3.05173">
        <ele>1202</ele>
        <time>2020-10-20T13:26:22Z</time>
      </trkpt>
      <trkpt lat="44.65289" lon="3.05319">
        <ele>1203</ele>
        <time>2020-10-20T13:29:00Z</time>
      </trkpt>
      <trkpt lat="44.6515" lon="3.05404">
        <ele>1206</ele>
        <time>2020-10-20T13:32:23Z</time>
      </trkpt>
      <trkpt lat="44.65191" lon="3.05513">
        <ele>1207</ele>
        <time>2020-10-20T13:34:20Z</time>
      </trkpt>
      <trkpt lat="44.65159" lon="3.05616">
        <ele>1208</ele>
        <time>2020-10-20T13:36:06Z</time>
      </trkpt>
      <trkpt lat="44.65228" lon="3.05768">
        <ele>1208</ele>
        <time>2020-10-20T13:38:58Z</time>
      </trkpt>
      <trkpt lat="44.65211" lon="3.05786">
        <ele>1208</ele>
        <time>2020-10-20T13:39:26Z</time>
      </trkpt>
      <trkpt lat="44.65127" lon="3.05816">
        <ele>1209</ele>
        <time>2020-10-20T13:41:22Z</time>
      </trkpt>
      <trkpt lat="44.65129" lon="3.05871">
        <ele>1211</ele>
        <time>2020-10-20T13:42:14Z</time>
      </trkpt>
      <trkpt lat="44.6498" lon="3.05913">
        <ele>1219</ele>
        <time>2020-10-20T13:45:37Z</time>
      </trkpt>
      <trkpt lat="44.64945" lon="3.06001">
        <ele>1221</ele>
        <time>2020-10-20T13:47:12Z</time>
      </trkpt>
      <trkpt lat="44.64937" lon="3.0605">
        <ele>1222</ele>
        <time>2020-10-20T13:48:00Z</time>
      </trkpt>
      <trkpt lat="44.649" lon="3.06096">
        <ele>1222</ele>
        <time>2020-10-20T13:49:06Z</time>
      </trkpt>
      <trkpt lat="44.64822" lon="3.06481">
        <ele>1221</ele>
        <time>2020-10-20T13:55:26Z</time>
      </trkpt>
      <trkpt lat="44.64811" lon="3.06511">
        <ele>1220</ele>
        <time>2020-10-20T13:55:58Z</time>
      </trkpt>
      <trkpt lat="44.64703" lon="3.06511">
        <ele>1219</ele>
        <time>2020-10-20T13:58:22Z</time>
      </trkpt>
      <trkpt lat="44.64552" lon="3.06442">
        <ele>1218</ele>
        <time>2020-10-20T14:01:54Z</time>
      </trkpt>
      <trkpt lat="44.64349" lon="3.06426">
        <ele>1214</ele>
        <time>2020-10-20T14:06:25Z</time>
      </trkpt>
      <trkpt lat="44.64186" lon="3.0647">
        <ele>1215</ele>
        <time>2020-10-20T14:10:07Z</time>
      </trkpt>
      <trkpt lat="44.6406" lon="3.06472">
        <ele>1218</ele>
        <time>2020-10-20T14:12:55Z</time>
      </trkpt>
      <trkpt lat="44.6387" lon="3.06357">
        <ele>1216</ele>
        <time>2020-10-20T14:17:31Z</time>
      </trkpt>
      <trkpt lat="44.63814" lon="3.06284">
        <ele>1217</ele>
        <time>2020-10-20T14:19:13Z</time>
      </trkpt>
      <trkpt lat="44.63507" lon="3.06098">
        <ele>1226</ele>
        <time>2020-10-20T14:26:39Z</time>
      </trkpt>
      <trkpt lat="44.63136" lon="3.05823">
        <ele>1233</ele>
        <time>2020-10-20T14:35:59Z</time>
      </trkpt>
      <trkpt lat="44.63014" lon="3.05823">
        <ele>1233</ele>
        <time>2020-10-20T14:38:42Z</time>
      </trkpt>
      <trkpt lat="44.62942" lon="3.05808">
        <ele>1237</ele>
        <time>2020-10-20T14:40:19Z</time>
      </trkpt>
      <trkpt lat="44.62674" lon="3.05644">
        <ele>1240</ele>
        <time>2020-10-20T14:46:49Z</time>
      </trkpt>
      <trkpt lat="44.62472" lon="3.05578">
        <ele>1246</ele>
        <time>2020-10-20T14:51:26Z</time>
      </trkpt>
      <trkpt lat="44.62401" lon="3.05511">
        <ele>1249</ele>
        <time>2020-10-20T14:53:20Z</time>
      </trkpt>
      <trkpt lat="44.62341" lon="3.05435">
        <ele>1253</ele>
        <time>2020-10-20T14:55:08Z</time>
      </trkpt>
      <trkpt lat="44.62273" lon="3.05337">
        <ele>1255</ele>
        <time>2020-10-20T14:57:18Z</time>
      </trkpt>
      <trkpt lat="44.62214" lon="3.05179">
        <ele>1254</ele>
        <time>2020-10-20T15:00:07Z</time>
      </trkpt>
      <trkpt lat="44.6171" lon="3.04988">
        <ele>1250</ele>
        <time>2020-10-20T15:11:44Z</time>
      </trkpt>
      <trkpt lat="44.61658" lon="3.05039">
        <ele>1254</ele>
        <time>2020-10-20T15:13:08Z</time>
      </trkpt>
      <trkpt lat="44.61622" lon="3.05097">
        <ele>1259</ele>
        <time>2020-10-20T15:14:21Z</time>
      </trkpt>
      <trkpt lat="44.61618" lon="3.05203">
        <ele>1258</ele>
        <time>2020-10-20T15:16:02Z</time>
      </trkpt>
      <trkpt lat="44.61613" lon="3.05228">
        <ele>1258</ele>
        <time>2020-10-20T15:16:27Z</time>
      </trkpt>
      <trkpt lat="44.61559" lon="3.05252">
        <ele>1261</ele>
        <time>2020-10-20T15:17:43Z</time>
      </trkpt>
      <trkpt lat="44.61451" lon="3.05209">
        <ele>1269</ele>
        <time>2020-10-20T15:20:12Z</time>
      </trkpt>
      <trkpt lat="44.61309" lon="3.05128">
        <ele>1272</ele>
        <time>2020-10-20T15:23:37Z</time>
      </trkpt>
      <trkpt lat="44.61185" lon="3.05043">
        <ele>1278</ele>
        <time>2020-10-20T15:26:41Z</time>
      </trkpt>
      <trkpt lat="44.61123" lon="3.05049">
        <ele>1282</ele>
        <time>2020-10-20T15:28:04Z</time>
      </trkpt>
      <trkpt lat="44.61093" lon="3.0503">
        <ele>1284</ele>
        <time>2020-10-20T15:28:48Z</time>
      </trkpt>
      <trkpt lat="44.61062" lon="3.04933">
        <ele>1288</ele>
        <time>2020-10-20T15:30:29Z</time>
      </trkpt>
      <trkpt lat="44.60949" lon="3.04789">
        <ele>1295</ele>
        <time>2020-10-20T15:33:52Z</time>
      </trkpt>
      <trkpt lat="44.60907" lon="3.04706">
        <ele>1296</ele>
        <time>2020-10-20T15:35:29Z</time>
      </trkpt>
      <trkpt lat="44.609" lon="3.04596">
        <ele>1296</ele>
        <time>2020-10-20T15:37:14Z</time>
      </trkpt>
      <trkpt lat="44.60885" lon="3.04339">
        <ele>1298</ele>
        <time>2020-10-20T15:41:19Z</time>
      </trkpt>
      <trkpt lat="44.60861" lon="3.04248">
        <ele>1301</ele>
        <time>2020-10-20T15:42:51Z</time>
      </trkpt>
      <trkpt lat="44.60877" lon="3.04114">
        <ele>1302</ele>
        <time>2020-10-20T15:45:00Z</time>
      </trkpt>
      <trkpt lat="44.60783" lon="3.03822">
        <ele>1309</ele>
        <time>2020-10-20T15:50:05Z</time>
      </trkpt>
      <trkpt lat="44.60673" lon="3.03753">
        <ele>1314</ele>
        <time>2020-10-20T15:52:46Z</time>
      </trkpt>
      <trkpt lat="44.60568" lon="3.03636">
        <ele>1313</ele>
        <time>2020-10-20T15:55:44Z</time>
      </trkpt>
      <trkpt lat="44.6051" lon="3.03536">
        <ele>1314</ele>
        <time>2020-10-20T15:57:47Z</time>
      </trkpt>
      <trkpt lat="44.60393" lon="3.03478">
        <ele>1322</ele>
        <time>2020-10-20T16:00:33Z</time>
      </trkpt>
      <trkpt lat="44.60244" lon="3.03277">
        <ele>1316</ele>
        <time>2020-10-20T16:05:08Z</time>
      </trkpt>
      <trkpt lat="44.6027" lon="3.03005">
        <ele>1318</ele>
        <time>2020-10-20T16:09:29Z</time>
      </trkpt>
      <trkpt lat="44.6015" lon="3.03031">
        <ele>1320</ele>
        <time>2020-10-20T16:12:11Z</time>
      </trkpt>
      <trkpt lat="44.60049" lon="3.03128">
        <ele>1321</ele>
        <time>2020-10-20T16:14:54Z</time>
      </trkpt>
      <trkpt lat="44.59787" lon="3.03189">
        <ele>1341</ele>
        <time>2020-10-20T16:20:49Z</time>
      </trkpt>
      <trkpt lat="44.59875" lon="3.02851">
        <ele>1329</ele>
        <time>2020-10-20T16:26:31Z</time>
      </trkpt>
      <trkpt lat="44.597" lon="3.02424">
        <ele>1336</ele>
        <time>2020-10-20T16:34:19Z</time>
      </trkpt>
      <trkpt lat="44.59445" lon="3.02332">
        <ele>1340</ele>
        <time>2020-10-20T16:40:10Z</time>
      </trkpt>
      <trkpt lat="44.59227" lon="3.02153">
        <ele>1339</ele>
        <time>2020-10-20T16:45:47Z</time>
      </trkpt>
      <trkpt lat="44.59242" lon="3.02066">
        <ele>1334</ele>
        <time>2020-10-20T16:47:12Z</time>
      </trkpt>
      <trkpt lat="44.59173" lon="3.01985">
        <ele>1333</ele>
        <time>2020-10-20T16:49:12Z</time>
      </trkpt>
      <trkpt lat="44.59151" lon="3.01893">
        <ele>1329</ele>
        <time>2020-10-20T16:50:44Z</time>
      </trkpt>
      <trkpt lat="44.59224" lon="3.0175">
        <ele>1323</ele>
        <time>2020-10-20T16:53:32Z</time>
      </trkpt>
      <trkpt lat="44.593" lon="3.01607">
        <ele>1320</ele>
        <time>2020-10-20T16:56:21Z</time>
      </trkpt>
      <trkpt lat="44.59296" lon="3.01454">
        <ele>1316</ele>
        <time>2020-10-20T16:58:47Z</time>
      </trkpt>
      <trkpt lat="44.59238" lon="3.01265">
        <ele>1305</ele>
        <time>2020-10-20T17:02:02Z</time>
      </trkpt>
      <trkpt lat="44.59195" lon="3.0125">
        <ele>1307</ele>
        <time>2020-10-20T17:03:01Z</time>
      </trkpt>
      <trkpt lat="44.59147" lon="3.01148">
        <ele>1304</ele>
        <time>2020-10-20T17:04:58Z</time>
      </trkpt>
      <trkpt lat="44.59165" lon="3.01046">
        <ele>1301</ele>
        <time>2020-10-20T17:06:37Z</time>
      </trkpt>
      <trkpt lat="44.59347" lon="3.00785">
        <ele>1314</ele>
        <time>2020-10-20T17:12:25Z</time>
      </trkpt>
      <trkpt lat="44.59463" lon="3.00505">
        <ele>1316</ele>
        <time>2020-10-20T17:17:32Z</time>
      </trkpt>
      <trkpt lat="44.595" lon="3.00076">
        <ele>1318</ele>
        <time>2020-10-20T17:24:23Z</time>
      </trkpt>
      <trkpt lat="44.59531" lon="2.99953">
        <ele>1319</ele>
        <time>2020-10-20T17:26:27Z</time>
      </trkpt>
      <trkpt lat="44.59671" lon="2.99683">
        <ele>1314</ele>
        <time>2020-10-20T17:31:44Z</time>
      </trkpt>
      <trkpt lat="44.59685" lon="2.99535">
        <ele>1316</ele>
        <time>2020-10-20T17:34:06Z</time>
      </trkpt>
      <trkpt lat="44.59965" lon="2.99127">
        <ele>1314</ele>
        <time>2020-10-20T17:43:05Z</time>
      </trkpt>
      <trkpt lat="44.6007" lon="2.99379">
        <ele>1298</ele>
        <time>2020-10-20T17:47:42Z</time>
      </trkpt>
      <trkpt lat="44.60165" lon="2.99504">
        <ele>1285</ele>
        <time>2020-10-20T17:50:36Z</time>
      </trkpt>
      <trkpt lat="44.60254" lon="2.9951">
        <ele>1284</ele>
        <time>2020-10-20T17:52:35Z</time>
      </trkpt>
      <trkpt lat="44.60373" lon="2.99532">
        <ele>1274</ele>
        <time>2020-10-20T17:55:15Z</time>
      </trkpt>
      <trkpt lat="44.60524" lon="2.99632">
        <ele>1248</ele>
        <time>2020-10-20T17:58:58Z</time>
      </trkpt>
      <trkpt lat="44.60597" lon="2.99619">
        <ele>1234</ele>
        <time>2020-10-20T18:00:36Z</time>
      </trkpt>
      <trkpt lat="44.60641" lon="2.99634">
        <ele>1224</ele>
        <time>2020-10-20T18:01:36Z</time>
      </trkpt>
      <trkpt lat="44.6069" lon="2.99634">
        <ele>1214</ele>
        <time>2020-10-20T18:02:42Z</time>
      </trkpt>
      <trkpt lat="44.60732" lon="2.99705">
        <ele>1209</ele>
        <time>2020-10-20T18:04:09Z</time>
      </trkpt>
      <trkpt lat="44.60931" lon="2.99486">
        <ele>1206</ele>
        <time>2020-10-20T18:09:47Z</time>
      </trkpt>
      <trkpt lat="44.61052" lon="2.99359">
        <ele>1223</ele>
        <time>2020-10-20T18:13:08Z</time>
      </trkpt>
      <trkpt lat="44.61073" lon="2.99304">
        <ele>1224</ele>
        <time>2020-10-20T18:14:08Z</time>
      </trkpt>
      <trkpt lat="44.61255" lon="2.9921">
        <ele>1234</ele>
        <time>2020-10-20T18:18:26Z</time>
      </trkpt>
      <trkpt lat="44.6151" lon="2.99174">
        <ele>1234</ele>
        <time>2020-10-20T18:24:08Z</time>
      </trkpt>
      <trkpt lat="44.61583" lon="2.9924">
        <ele>1236</ele>
        <time>2020-10-20T18:26:04Z</time>
      </trkpt>
      <trkpt lat="44.61719" lon="2.9911">
        <ele>1251</ele>
        <time>2020-10-20T18:29:44Z</time>
      </trkpt>
      <trkpt lat="44.61832" lon="2.99048">
        <ele>1267</ele>
        <time>2020-10-20T18:32:26Z</time>
      </trkpt>
      <trkpt lat="44.61886" lon="2.98984">
        <ele>1274</ele>
        <time>2020-10-20T18:34:00Z</time>
      </trkpt>
      <trkpt lat="44.61893" lon="2.98869">
        <ele>1283</ele>
        <time>2020-10-20T18:35:50Z</time>
      </trkpt>
      <trkpt lat="44.6192" lon="2.98829">
        <ele>1286</ele>
        <time>2020-10-20T18:36:42Z</time>
      </trkpt>
      <trkpt lat="44.62032" lon="2.98757">
        <ele>1294</ele>
        <time>2020-10-20T18:39:26Z</time>
      </trkpt>
      <trkpt lat="44.62043" lon="2.98704">
        <ele>1298</ele>
        <time>2020-10-20T18:40:19Z</time>
      </trkpt>
      <trkpt lat="44.62132" lon="2.98708">
        <ele>1303</ele>
        <time>2020-10-20T18:42:18Z</time>
      </trkpt>
      <trkpt lat="44.62165" lon="2.98687">
        <ele>1308</ele>
        <time>2020-10-20T18:43:06Z</time>
      </trkpt>
      <trkpt lat="44.6219" lon="2.98635">
        <ele>1312</ele>
        <time>2020-10-20T18:44:05Z</time>
      </trkpt>
      <trkpt lat="44.62192" lon="2.98648">
        <ele>1311</ele>
        <time>2020-10-20T18:44:18Z</time>
      </trkpt>
    </trkseg>
  </trk>
</gpx>